sensor_id;sensor_type;location;lat;lon;timestamp;temperature;humidity
12682;DHT22;6405;59.208;18.216;2022-11-21T00:00:59;-0.10;99.90
12682;DHT22;6405;59.208;18.216;2022-11-21T00:03:26;-0.10;99.90
12682;DHT22;6405;59.208;18.216;2022-11-21T00:05:53;-0.10;99.90
12682;DHT22;6405;59.208;18.216;2022-11-21T00:08:21;-0.10;99.90
12682;DHT22;6405;59.208;18.216;2022-11-21T00:10:48;-0.10;99.90
12682;DHT22;6405;59.208;18.216;2022-11-21T00:13:17;-0.10;99.90
12682;DHT22;6405;59.208;18.216;2022-11-21T00:15:44;-0.10;99.90
12682;DHT22;6405;59.208;18.216;2022-11-21T00:18:13;-0.10;99.90
12682;DHT22;6405;59.208;18.216;2022-11-21T00:20:39;-0.10;99.90
12682;DHT22;6405;59.208;18.216;2022-11-21T00:23:07;-0.10;99.90
12682;DHT22;6405;59.208;18.216;2022-11-21T00:25:35;-0.10;99.90
12682;DHT22;6405;59.208;18.216;2022-11-21T00:28:02;-0.10;99.90
12682;DHT22;6405;59.208;18.216;2022-11-21T00:30:29;-0.10;99.90
12682;DHT22;6405;59.208;18.216;2022-11-21T00:32:58;-0.10;99.90
12682;DHT22;6405;59.208;18.216;2022-11-21T00:35:23;-0.10;99.90
12682;DHT22;6405;59.208;18.216;2022-11-21T00:37:51;-0.20;99.90
12682;DHT22;6405;59.208;18.216;2022-11-21T00:40:19;-0.20;99.90
12682;DHT22;6405;59.208;18.216;2022-11-21T00:42:46;-0.20;99.90
12682;DHT22;6405;59.208;18.216;2022-11-21T00:45:13;-0.20;99.90
12682;DHT22;6405;59.208;18.216;2022-11-21T00:47:39;-0.20;99.90
12682;DHT22;6405;59.208;18.216;2022-11-21T00:50:06;-0.20;99.90
12682;DHT22;6405;59.208;18.216;2022-11-21T00:52:34;-0.20;99.90
12682;DHT22;6405;59.208;18.216;2022-11-21T00:55:01;-0.30;99.90
12682;DHT22;6405;59.208;18.216;2022-11-21T00:57:29;-0.30;99.90
12682;DHT22;6405;59.208;18.216;2022-11-21T00:59:55;-0.40;99.90
12682;DHT22;6405;59.208;18.216;2022-11-21T01:02:23;-0.50;99.90
12682;DHT22;6405;59.208;18.216;2022-11-21T01:04:50;-0.50;99.90
12682;DHT22;6405;59.208;18.216;2022-11-21T01:07:16;-0.60;99.90
12682;DHT22;6405;59.208;18.216;2022-11-21T01:09:43;-0.60;99.90
12682;DHT22;6405;59.208;18.216;2022-11-21T01:12:09;-0.60;99.90
12682;DHT22;6405;59.208;18.216;2022-11-21T01:14:36;-0.60;99.90
12682;DHT22;6405;59.208;18.216;2022-11-21T01:17:04;-0.60;99.90
12682;DHT22;6405;59.208;18.216;2022-11-21T01:19:30;-0.60;99.90
12682;DHT22;6405;59.208;18.216;2022-11-21T01:21:56;-0.60;99.90
12682;DHT22;6405;59.208;18.216;2022-11-21T01:24:22;-0.60;99.90
12682;DHT22;6405;59.208;18.216;2022-11-21T01:26:48;-0.60;99.90
12682;DHT22;6405;59.208;18.216;2022-11-21T01:29:16;-0.60;99.90
12682;DHT22;6405;59.208;18.216;2022-11-21T01:31:43;-0.40;99.90
12682;DHT22;6405;59.208;18.216;2022-11-21T01:34:11;-0.60;99.90
12682;DHT22;6405;59.208;18.216;2022-11-21T01:36:41;-0.70;99.90
12682;DHT22;6405;59.208;18.216;2022-11-21T01:39:10;-0.60;99.90
12682;DHT22;6405;59.208;18.216;2022-11-21T01:41:40;-0.70;99.90
12682;DHT22;6405;59.208;18.216;2022-11-21T01:44:26;-0.60;99.90
12682;DHT22;6405;59.208;18.216;2022-11-21T01:46:54;-0.60;99.90
12682;DHT22;6405;59.208;18.216;2022-11-21T01:49:26;-0.70;99.90
12682;DHT22;6405;59.208;18.216;2022-11-21T01:52:02;-0.60;99.90
12682;DHT22;6405;59.208;18.216;2022-11-21T01:54:43;-0.60;99.90
12682;DHT22;6405;59.208;18.216;2022-11-21T01:57:34;-0.60;99.90
12682;DHT22;6405;59.208;18.216;2022-11-21T02:00:19;-0.60;99.90
12682;DHT22;6405;59.208;18.216;2022-11-21T02:02:58;-0.60;99.90
12682;DHT22;6405;59.208;18.216;2022-11-21T02:05:30;-0.60;99.90
12682;DHT22;6405;59.208;18.216;2022-11-21T02:08:08;-0.50;99.90
12682;DHT22;6405;59.208;18.216;2022-11-21T02:10:37;-0.50;99.90
12682;DHT22;6405;59.208;18.216;2022-11-21T02:13:04;-0.50;99.90
12682;DHT22;6405;59.208;18.216;2022-11-21T02:15:31;-0.50;99.90
12682;DHT22;6405;59.208;18.216;2022-11-21T02:17:57;-0.50;99.90
12682;DHT22;6405;59.208;18.216;2022-11-21T02:20:25;-0.50;99.90
12682;DHT22;6405;59.208;18.216;2022-11-21T02:25:30;-0.50;99.90
12682;DHT22;6405;59.208;18.216;2022-11-21T02:28:00;-0.50;99.90
12682;DHT22;6405;59.208;18.216;2022-11-21T02:30:31;-0.50;99.90
12682;DHT22;6405;59.208;18.216;2022-11-21T02:32:58;-0.50;99.90
12682;DHT22;6405;59.208;18.216;2022-11-21T02:35:25;-0.40;99.90
12682;DHT22;6405;59.208;18.216;2022-11-21T02:38:16;-0.50;99.90
12682;DHT22;6405;59.208;18.216;2022-11-21T02:41:10;-0.50;99.90
12682;DHT22;6405;59.208;18.216;2022-11-21T02:43:42;-0.30;99.90
12682;DHT22;6405;59.208;18.216;2022-11-21T02:46:11;-0.40;99.90
12682;DHT22;6405;59.208;18.216;2022-11-21T02:48:39;-0.50;99.90
12682;DHT22;6405;59.208;18.216;2022-11-21T02:51:07;-0.50;99.90
12682;DHT22;6405;59.208;18.216;2022-11-21T02:53:33;-0.40;99.90
12682;DHT22;6405;59.208;18.216;2022-11-21T02:55:59;-0.40;99.90
12682;DHT22;6405;59.208;18.216;2022-11-21T02:58:26;-0.50;99.90
12682;DHT22;6405;59.208;18.216;2022-11-21T03:00:54;-0.50;99.90
12682;DHT22;6405;59.208;18.216;2022-11-21T03:03:21;-0.50;99.90
12682;DHT22;6405;59.208;18.216;2022-11-21T03:05:47;-0.50;99.90
12682;DHT22;6405;59.208;18.216;2022-11-21T03:08:14;-0.50;99.90
12682;DHT22;6405;59.208;18.216;2022-11-21T03:10:41;-0.50;99.90
12682;DHT22;6405;59.208;18.216;2022-11-21T03:13:08;-0.60;99.90
12682;DHT22;6405;59.208;18.216;2022-11-21T03:15:36;-0.60;99.90
12682;DHT22;6405;59.208;18.216;2022-11-21T03:18:03;-0.60;99.90
12682;DHT22;6405;59.208;18.216;2022-11-21T03:20:31;-0.60;99.90
12682;DHT22;6405;59.208;18.216;2022-11-21T03:22:59;-0.60;99.90
12682;DHT22;6405;59.208;18.216;2022-11-21T03:25:26;-0.60;99.90
12682;DHT22;6405;59.208;18.216;2022-11-21T03:27:53;-0.60;99.90
12682;DHT22;6405;59.208;18.216;2022-11-21T03:30:21;-0.60;99.90
12682;DHT22;6405;59.208;18.216;2022-11-21T03:32:47;-0.30;99.90
12682;DHT22;6405;59.208;18.216;2022-11-21T03:35:17;-0.60;99.90
12682;DHT22;6405;59.208;18.216;2022-11-21T03:37:47;-0.50;99.90
12682;DHT22;6405;59.208;18.216;2022-11-21T03:40:15;-0.50;99.90
12682;DHT22;6405;59.208;18.216;2022-11-21T03:42:42;-0.50;99.90
12682;DHT22;6405;59.208;18.216;2022-11-21T03:45:09;-0.50;99.90
12682;DHT22;6405;59.208;18.216;2022-11-21T03:47:36;-0.50;99.90
12682;DHT22;6405;59.208;18.216;2022-11-21T03:50:03;-0.50;99.90
12682;DHT22;6405;59.208;18.216;2022-11-21T03:52:31;-0.50;99.90
12682;DHT22;6405;59.208;18.216;2022-11-21T03:54:58;-0.50;99.90
12682;DHT22;6405;59.208;18.216;2022-11-21T03:57:24;-0.50;99.90
12682;DHT22;6405;59.208;18.216;2022-11-21T03:59:50;-0.50;99.90
12682;DHT22;6405;59.208;18.216;2022-11-21T04:02:17;-0.50;99.90
12682;DHT22;6405;59.208;18.216;2022-11-21T04:04:43;-0.50;99.90
12682;DHT22;6405;59.208;18.216;2022-11-21T04:07:09;-0.60;99.90
12682;DHT22;6405;59.208;18.216;2022-11-21T04:09:38;-0.60;99.90
12682;DHT22;6405;59.208;18.216;2022-11-21T04:12:05;-0.60;99.90
12682;DHT22;6405;59.208;18.216;2022-11-21T04:14:31;-0.60;99.90
12682;DHT22;6405;59.208;18.216;2022-11-21T04:16:58;-0.60;99.90
12682;DHT22;6405;59.208;18.216;2022-11-21T04:19:27;-0.60;99.90
12682;DHT22;6405;59.208;18.216;2022-11-21T04:21:52;-0.60;99.90
12682;DHT22;6405;59.208;18.216;2022-11-21T04:24:21;-0.60;99.90
12682;DHT22;6405;59.208;18.216;2022-11-21T04:26:48;-0.60;99.90
12682;DHT22;6405;59.208;18.216;2022-11-21T04:29:14;-0.60;99.90
12682;DHT22;6405;59.208;18.216;2022-11-21T04:31:41;-0.60;99.90
12682;DHT22;6405;59.208;18.216;2022-11-21T04:34:09;-0.60;99.90
12682;DHT22;6405;59.208;18.216;2022-11-21T04:36:35;-0.60;99.90
12682;DHT22;6405;59.208;18.216;2022-11-21T04:39:02;-0.70;99.90
12682;DHT22;6405;59.208;18.216;2022-11-21T04:41:29;-0.70;99.90
12682;DHT22;6405;59.208;18.216;2022-11-21T04:43:57;-0.70;99.90
12682;DHT22;6405;59.208;18.216;2022-11-21T04:46:24;-0.70;99.90
12682;DHT22;6405;59.208;18.216;2022-11-21T04:48:51;-0.60;99.90
12682;DHT22;6405;59.208;18.216;2022-11-21T04:51:19;-0.70;99.90
12682;DHT22;6405;59.208;18.216;2022-11-21T04:53:46;-0.70;99.90
12682;DHT22;6405;59.208;18.216;2022-11-21T04:56:13;-0.70;99.90
12682;DHT22;6405;59.208;18.216;2022-11-21T04:58:42;-0.70;99.90
12682;DHT22;6405;59.208;18.216;2022-11-21T05:01:10;-0.70;99.90
12682;DHT22;6405;59.208;18.216;2022-11-21T05:03:36;-0.70;99.90
12682;DHT22;6405;59.208;18.216;2022-11-21T05:06:03;-0.60;99.90
12682;DHT22;6405;59.208;18.216;2022-11-21T05:08:30;-0.60;99.90
12682;DHT22;6405;59.208;18.216;2022-11-21T05:10:57;-0.60;99.90
12682;DHT22;6405;59.208;18.216;2022-11-21T05:13:42;-0.60;99.90
12682;DHT22;6405;59.208;18.216;2022-11-21T05:16:10;-0.60;99.90
12682;DHT22;6405;59.208;18.216;2022-11-21T05:18:37;-0.60;99.90
12682;DHT22;6405;59.208;18.216;2022-11-21T05:21:05;-0.60;99.90
12682;DHT22;6405;59.208;18.216;2022-11-21T05:23:32;-0.60;99.90
12682;DHT22;6405;59.208;18.216;2022-11-21T05:26:00;-0.60;99.90
12682;DHT22;6405;59.208;18.216;2022-11-21T05:28:26;-0.60;99.90
12682;DHT22;6405;59.208;18.216;2022-11-21T05:30:53;-0.60;99.90
12682;DHT22;6405;59.208;18.216;2022-11-21T05:33:20;-0.60;99.90
12682;DHT22;6405;59.208;18.216;2022-11-21T05:35:48;-0.60;99.90
12682;DHT22;6405;59.208;18.216;2022-11-21T05:38:13;-0.50;99.90
12682;DHT22;6405;59.208;18.216;2022-11-21T05:40:43;-0.50;99.90
12682;DHT22;6405;59.208;18.216;2022-11-21T05:43:11;-0.50;99.90
12682;DHT22;6405;59.208;18.216;2022-11-21T05:45:56;-0.50;99.90
12682;DHT22;6405;59.208;18.216;2022-11-21T05:48:24;-0.50;99.90
12682;DHT22;6405;59.208;18.216;2022-11-21T05:50:50;-0.50;99.90
12682;DHT22;6405;59.208;18.216;2022-11-21T05:53:18;-0.50;99.90
12682;DHT22;6405;59.208;18.216;2022-11-21T05:55:45;-0.40;99.90
12682;DHT22;6405;59.208;18.216;2022-11-21T05:58:13;-0.40;99.90
12682;DHT22;6405;59.208;18.216;2022-11-21T06:00:40;-0.40;99.90
12682;DHT22;6405;59.208;18.216;2022-11-21T06:03:09;-0.40;99.90
12682;DHT22;6405;59.208;18.216;2022-11-21T06:06:05;-0.40;99.90
12682;DHT22;6405;59.208;18.216;2022-11-21T06:08:42;-0.40;99.90
12682;DHT22;6405;59.208;18.216;2022-11-21T06:11:12;-0.30;99.90
12682;DHT22;6405;59.208;18.216;2022-11-21T06:13:41;-0.30;99.90
12682;DHT22;6405;59.208;18.216;2022-11-21T06:16:17;-0.20;99.90
12682;DHT22;6405;59.208;18.216;2022-11-21T06:18:49;-0.20;99.90
12682;DHT22;6405;59.208;18.216;2022-11-21T06:21:20;-0.20;99.90
12682;DHT22;6405;59.208;18.216;2022-11-21T06:23:50;-0.20;99.90
12682;DHT22;6405;59.208;18.216;2022-11-21T06:26:21;-0.10;99.90
12682;DHT22;6405;59.208;18.216;2022-11-21T06:28:49;-0.10;99.90
12682;DHT22;6405;59.208;18.216;2022-11-21T06:31:23;-0.10;99.90
12682;DHT22;6405;59.208;18.216;2022-11-21T06:33:56;-0.10;99.90
12682;DHT22;6405;59.208;18.216;2022-11-21T06:36:23;0.00;99.90
12682;DHT22;6405;59.208;18.216;2022-11-21T06:38:53;-0.10;99.90
12682;DHT22;6405;59.208;18.216;2022-11-21T06:41:23;0.00;99.90
12682;DHT22;6405;59.208;18.216;2022-11-21T06:43:51;0.00;99.90
12682;DHT22;6405;59.208;18.216;2022-11-21T06:46:19;0.10;99.90
12682;DHT22;6405;59.208;18.216;2022-11-21T06:48:46;0.00;99.90
12682;DHT22;6405;59.208;18.216;2022-11-21T06:51:21;0.00;99.90
12682;DHT22;6405;59.208;18.216;2022-11-21T06:53:54;0.00;99.90
12682;DHT22;6405;59.208;18.216;2022-11-21T06:56:23;0.00;99.90
12682;DHT22;6405;59.208;18.216;2022-11-21T06:58:49;0.00;99.90
12682;DHT22;6405;59.208;18.216;2022-11-21T07:01:16;0.00;99.90
12682;DHT22;6405;59.208;18.216;2022-11-21T07:03:43;0.00;99.90
12682;DHT22;6405;59.208;18.216;2022-11-21T07:06:11;0.00;99.90
12682;DHT22;6405;59.208;18.216;2022-11-21T07:08:36;0.00;99.90
12682;DHT22;6405;59.208;18.216;2022-11-21T07:11:09;0.10;99.90
12682;DHT22;6405;59.208;18.216;2022-11-21T07:13:39;0.00;99.90
12682;DHT22;6405;59.208;18.216;2022-11-21T07:16:10;-0.10;99.90
12682;DHT22;6405;59.208;18.216;2022-11-21T07:18:41;-0.20;99.90
12682;DHT22;6405;59.208;18.216;2022-11-21T07:21:08;-0.30;99.90
12682;DHT22;6405;59.208;18.216;2022-11-21T07:23:35;-0.30;99.90
12682;DHT22;6405;59.208;18.216;2022-11-21T07:26:05;-0.40;99.90
12682;DHT22;6405;59.208;18.216;2022-11-21T07:28:32;-0.50;99.90
12682;DHT22;6405;59.208;18.216;2022-11-21T07:31:01;-0.60;99.90
12682;DHT22;6405;59.208;18.216;2022-11-21T07:33:30;-0.60;99.90
12682;DHT22;6405;59.208;18.216;2022-11-21T07:35:57;-0.70;99.90
12682;DHT22;6405;59.208;18.216;2022-11-21T07:38:25;-0.70;99.90
12682;DHT22;6405;59.208;18.216;2022-11-21T07:40:52;-0.70;99.90
12682;DHT22;6405;59.208;18.216;2022-11-21T07:43:21;-0.70;99.90
12682;DHT22;6405;59.208;18.216;2022-11-21T07:45:49;-0.60;99.90
12682;DHT22;6405;59.208;18.216;2022-11-21T07:48:16;-0.50;99.90
12682;DHT22;6405;59.208;18.216;2022-11-21T07:50:46;-0.50;99.90
12682;DHT22;6405;59.208;18.216;2022-11-21T07:53:12;-0.40;99.90
12682;DHT22;6405;59.208;18.216;2022-11-21T07:55:40;-0.40;99.90
12682;DHT22;6405;59.208;18.216;2022-11-21T07:58:10;-0.30;99.90
12682;DHT22;6405;59.208;18.216;2022-11-21T08:00:38;-0.20;99.90
12682;DHT22;6405;59.208;18.216;2022-11-21T08:03:05;-0.20;99.90
12682;DHT22;6405;59.208;18.216;2022-11-21T08:05:37;-0.20;99.90
12682;DHT22;6405;59.208;18.216;2022-11-21T08:08:04;-0.10;99.90
12682;DHT22;6405;59.208;18.216;2022-11-21T08:10:32;-0.10;99.90
12682;DHT22;6405;59.208;18.216;2022-11-21T08:12:59;0.00;99.90
12682;DHT22;6405;59.208;18.216;2022-11-21T08:15:27;0.00;99.90
12682;DHT22;6405;59.208;18.216;2022-11-21T08:17:54;0.00;99.90
12682;DHT22;6405;59.208;18.216;2022-11-21T08:20:20;0.10;99.90
12682;DHT22;6405;59.208;18.216;2022-11-21T08:22:47;0.10;99.90
12682;DHT22;6405;59.208;18.216;2022-11-21T08:25:14;0.10;99.90
12682;DHT22;6405;59.208;18.216;2022-11-21T08:27:42;0.10;99.90
12682;DHT22;6405;59.208;18.216;2022-11-21T08:30:10;0.20;99.90
12682;DHT22;6405;59.208;18.216;2022-11-21T08:32:38;0.30;99.90
12682;DHT22;6405;59.208;18.216;2022-11-21T08:35:05;0.40;99.90
12682;DHT22;6405;59.208;18.216;2022-11-21T08:37:33;0.40;99.90
12682;DHT22;6405;59.208;18.216;2022-11-21T08:40:00;0.40;99.90
12682;DHT22;6405;59.208;18.216;2022-11-21T08:42:27;0.40;99.90
12682;DHT22;6405;59.208;18.216;2022-11-21T08:44:56;0.50;99.90
12682;DHT22;6405;59.208;18.216;2022-11-21T08:47:25;0.40;99.90
12682;DHT22;6405;59.208;18.216;2022-11-21T08:49:52;0.40;99.90
12682;DHT22;6405;59.208;18.216;2022-11-21T08:52:19;0.50;99.90
12682;DHT22;6405;59.208;18.216;2022-11-21T08:54:46;0.50;99.90
12682;DHT22;6405;59.208;18.216;2022-11-21T08:57:13;0.60;99.90
12682;DHT22;6405;59.208;18.216;2022-11-21T08:59:40;0.70;99.90
12682;DHT22;6405;59.208;18.216;2022-11-21T09:02:10;0.60;99.90
12682;DHT22;6405;59.208;18.216;2022-11-21T09:04:38;0.50;99.90
12682;DHT22;6405;59.208;18.216;2022-11-21T09:07:04;0.50;99.90
12682;DHT22;6405;59.208;18.216;2022-11-21T09:09:31;0.40;99.90
12682;DHT22;6405;59.208;18.216;2022-11-21T09:12:01;0.40;99.90
12682;DHT22;6405;59.208;18.216;2022-11-21T09:14:28;0.40;99.90
12682;DHT22;6405;59.208;18.216;2022-11-21T09:17:13;0.40;99.90
12682;DHT22;6405;59.208;18.216;2022-11-21T09:19:58;0.40;99.90
12682;DHT22;6405;59.208;18.216;2022-11-21T09:22:25;0.40;99.90
12682;DHT22;6405;59.208;18.216;2022-11-21T09:24:53;0.60;99.90
12682;DHT22;6405;59.208;18.216;2022-11-21T09:27:19;0.50;99.90
12682;DHT22;6405;59.208;18.216;2022-11-21T09:29:47;0.50;99.90
12682;DHT22;6405;59.208;18.216;2022-11-21T09:32:14;0.60;99.90
12682;DHT22;6405;59.208;18.216;2022-11-21T09:34:40;0.60;99.90
12682;DHT22;6405;59.208;18.216;2022-11-21T09:37:06;0.70;99.90
12682;DHT22;6405;59.208;18.216;2022-11-21T09:39:34;0.80;99.90
12682;DHT22;6405;59.208;18.216;2022-11-21T09:42:29;0.70;99.90
12682;DHT22;6405;59.208;18.216;2022-11-21T09:45:05;1.00;99.90
12682;DHT22;6405;59.208;18.216;2022-11-21T09:47:41;0.90;99.90
12682;DHT22;6405;59.208;18.216;2022-11-21T09:57:50;0.80;99.90
12682;DHT22;6405;59.208;18.216;2022-11-21T10:00:23;0.70;99.90
12682;DHT22;6405;59.208;18.216;2022-11-21T10:02:50;0.60;99.90
12682;DHT22;6405;59.208;18.216;2022-11-21T10:05:24;0.60;99.90
12682;DHT22;6405;59.208;18.216;2022-11-21T10:08:00;0.50;99.90
12682;DHT22;6405;59.208;18.216;2022-11-21T10:13:27;0.70;99.90
12682;DHT22;6405;59.208;18.216;2022-11-21T10:16:07;0.60;99.90
12682;DHT22;6405;59.208;18.216;2022-11-21T10:19:07;0.70;99.90
12682;DHT22;6405;59.208;18.216;2022-11-21T10:24:39;0.60;99.90
12682;DHT22;6405;59.208;18.216;2022-11-21T10:29:54;0.60;99.90
12682;DHT22;6405;59.208;18.216;2022-11-21T10:34:57;0.80;99.90
12682;DHT22;6405;59.208;18.216;2022-11-21T10:37:37;0.90;99.90
12682;DHT22;6405;59.208;18.216;2022-11-21T10:42:52;1.10;99.90
12682;DHT22;6405;59.208;18.216;2022-11-21T10:45:19;1.10;99.90
12682;DHT22;6405;59.208;18.216;2022-11-21T10:47:48;1.10;99.90
12682;DHT22;6405;59.208;18.216;2022-11-21T10:50:49;1.00;99.90
12682;DHT22;6405;59.208;18.216;2022-11-21T10:53:24;1.00;99.90
12682;DHT22;6405;59.208;18.216;2022-11-21T10:56:13;1.00;99.90
12682;DHT22;6405;59.208;18.216;2022-11-21T10:58:47;1.10;99.90
12682;DHT22;6405;59.208;18.216;2022-11-21T11:06:42;1.40;99.90
12682;DHT22;6405;59.208;18.216;2022-11-21T11:09:24;1.40;99.90
12682;DHT22;6405;59.208;18.216;2022-11-21T11:11:50;1.20;99.90
12682;DHT22;6405;59.208;18.216;2022-11-21T11:14:30;1.20;99.90
12682;DHT22;6405;59.208;18.216;2022-11-21T11:16:57;1.20;99.90
12682;DHT22;6405;59.208;18.216;2022-11-21T11:19:28;1.10;99.90
12682;DHT22;6405;59.208;18.216;2022-11-21T11:21:55;1.10;99.90
12682;DHT22;6405;59.208;18.216;2022-11-21T11:24:26;1.10;99.90
12682;DHT22;6405;59.208;18.216;2022-11-21T11:27:01;1.30;99.90
12682;DHT22;6405;59.208;18.216;2022-11-21T11:29:32;1.40;99.90
12682;DHT22;6405;59.208;18.216;2022-11-21T11:32:11;1.40;99.90
12682;DHT22;6405;59.208;18.216;2022-11-21T11:34:59;1.30;99.90
12682;DHT22;6405;59.208;18.216;2022-11-21T11:48:36;1.20;99.90
12682;DHT22;6405;59.208;18.216;2022-11-21T11:51:21;1.20;99.90
12682;DHT22;6405;59.208;18.216;2022-11-21T11:54:00;1.20;99.90
12682;DHT22;6405;59.208;18.216;2022-11-21T11:56:34;1.20;99.90
12682;DHT22;6405;59.208;18.216;2022-11-21T11:59:11;1.20;99.90
12682;DHT22;6405;59.208;18.216;2022-11-21T12:01:55;1.30;99.90
12682;DHT22;6405;59.208;18.216;2022-11-21T12:04:28;1.20;99.90
12682;DHT22;6405;59.208;18.216;2022-11-21T12:07:17;1.20;99.90
12682;DHT22;6405;59.208;18.216;2022-11-21T12:09:53;1.20;99.90
12682;DHT22;6405;59.208;18.216;2022-11-21T12:12:40;1.20;99.90
12682;DHT22;6405;59.208;18.216;2022-11-21T12:15:12;1.30;99.90
12682;DHT22;6405;59.208;18.216;2022-11-21T12:40:24;1.20;99.90
12682;DHT22;6405;59.208;18.216;2022-11-21T12:48:20;1.20;99.90
12682;DHT22;6405;59.208;18.216;2022-11-21T12:54:39;1.10;99.90
12682;DHT22;6405;59.208;18.216;2022-11-21T13:05:36;0.90;99.90
12682;DHT22;6405;59.208;18.216;2022-11-21T13:08:12;0.80;99.90
12682;DHT22;6405;59.208;18.216;2022-11-21T13:10:48;0.80;99.90
12682;DHT22;6405;59.208;18.216;2022-11-21T13:13:22;0.80;99.90
12682;DHT22;6405;59.208;18.216;2022-11-21T13:16:17;0.70;99.90
12682;DHT22;6405;59.208;18.216;2022-11-21T13:18:45;0.80;99.90
12682;DHT22;6405;59.208;18.216;2022-11-21T13:21:43;0.70;99.90
12682;DHT22;6405;59.208;18.216;2022-11-21T13:27:26;0.60;99.90
12682;DHT22;6405;59.208;18.216;2022-11-21T13:30:18;0.60;99.90
12682;DHT22;6405;59.208;18.216;2022-11-21T13:32:46;0.60;99.90
12682;DHT22;6405;59.208;18.216;2022-11-21T13:45:47;0.40;99.90
12682;DHT22;6405;59.208;18.216;2022-11-21T14:00:01;0.50;99.90
12682;DHT22;6405;59.208;18.216;2022-11-21T14:07:40;0.50;99.90
12682;DHT22;6405;59.208;18.216;2022-11-21T14:12:47;0.40;99.90
12682;DHT22;6405;59.208;18.216;2022-11-21T14:17:57;0.40;99.90
12682;DHT22;6405;59.208;18.216;2022-11-21T14:23:21;0.40;99.90
12682;DHT22;6405;59.208;18.216;2022-11-21T14:25:53;0.40;99.90
12682;DHT22;6405;59.208;18.216;2022-11-21T14:28:29;0.30;99.90
12682;DHT22;6405;59.208;18.216;2022-11-21T14:30:59;0.30;99.90
12682;DHT22;6405;59.208;18.216;2022-11-21T14:33:27;0.20;99.90
12682;DHT22;6405;59.208;18.216;2022-11-21T14:36:14;0.10;99.90
12682;DHT22;6405;59.208;18.216;2022-11-21T14:38:44;-0.10;99.90
12682;DHT22;6405;59.208;18.216;2022-11-21T14:46:37;-0.50;99.90
12682;DHT22;6405;59.208;18.216;2022-11-21T14:49:25;-0.70;99.90
12682;DHT22;6405;59.208;18.216;2022-11-21T14:52:14;-0.80;99.90
12682;DHT22;6405;59.208;18.216;2022-11-21T14:54:54;-0.90;99.90
12682;DHT22;6405;59.208;18.216;2022-11-21T14:57:29;-0.90;99.90
12682;DHT22;6405;59.208;18.216;2022-11-21T14:59:58;-1.00;99.90
12682;DHT22;6405;59.208;18.216;2022-11-21T15:02:30;-1.00;99.90
12682;DHT22;6405;59.208;18.216;2022-11-21T15:05:05;-1.10;99.90
12682;DHT22;6405;59.208;18.216;2022-11-21T15:07:43;-1.10;99.90
12682;DHT22;6405;59.208;18.216;2022-11-21T15:10:14;-1.10;99.90
12682;DHT22;6405;59.208;18.216;2022-11-21T15:13:02;-1.20;99.90
12682;DHT22;6405;59.208;18.216;2022-11-21T15:18:05;-1.30;99.90
12682;DHT22;6405;59.208;18.216;2022-11-21T15:20:33;-1.20;99.90
12682;DHT22;6405;59.208;18.216;2022-11-21T15:23:01;-1.20;99.90
12682;DHT22;6405;59.208;18.216;2022-11-21T15:25:44;-1.10;99.90
12682;DHT22;6405;59.208;18.216;2022-11-21T15:28:15;-1.10;99.90
12682;DHT22;6405;59.208;18.216;2022-11-21T15:30:42;-1.10;99.90
12682;DHT22;6405;59.208;18.216;2022-11-21T15:38:23;-1.10;99.90
12682;DHT22;6405;59.208;18.216;2022-11-21T15:41:22;-1.00;99.90
12682;DHT22;6405;59.208;18.216;2022-11-21T15:44:17;-0.90;99.90
12682;DHT22;6405;59.208;18.216;2022-11-21T15:46:50;-0.80;99.90
12682;DHT22;6405;59.208;18.216;2022-11-21T15:49:17;-0.70;99.90
12682;DHT22;6405;59.208;18.216;2022-11-21T15:51:49;-0.60;99.90
12682;DHT22;6405;59.208;18.216;2022-11-21T15:54:19;-0.50;99.90
12682;DHT22;6405;59.208;18.216;2022-11-21T15:56:47;-0.50;99.90
12682;DHT22;6405;59.208;18.216;2022-11-21T15:59:14;-0.40;99.90
12682;DHT22;6405;59.208;18.216;2022-11-21T16:01:42;-0.30;99.90
12682;DHT22;6405;59.208;18.216;2022-11-21T16:04:11;-0.30;99.90
12682;DHT22;6405;59.208;18.216;2022-11-21T16:06:38;-0.30;99.90
12682;DHT22;6405;59.208;18.216;2022-11-21T16:09:05;-0.20;99.90
12682;DHT22;6405;59.208;18.216;2022-11-21T16:11:36;-0.20;99.90
12682;DHT22;6405;59.208;18.216;2022-11-21T16:14:03;-0.10;99.90
12682;DHT22;6405;59.208;18.216;2022-11-21T16:16:33;-0.10;99.90
12682;DHT22;6405;59.208;18.216;2022-11-21T16:19:00;-0.10;99.90
12682;DHT22;6405;59.208;18.216;2022-11-21T16:21:28;-0.10;99.90
12682;DHT22;6405;59.208;18.216;2022-11-21T16:23:55;-0.10;99.90
12682;DHT22;6405;59.208;18.216;2022-11-21T16:26:21;-0.10;99.90
12682;DHT22;6405;59.208;18.216;2022-11-21T16:28:54;-0.10;99.90
12682;DHT22;6405;59.208;18.216;2022-11-21T16:31:23;-0.10;99.90
12682;DHT22;6405;59.208;18.216;2022-11-21T16:33:51;-0.10;99.90
12682;DHT22;6405;59.208;18.216;2022-11-21T16:36:21;-0.10;99.90
12682;DHT22;6405;59.208;18.216;2022-11-21T16:38:48;-0.10;99.90
12682;DHT22;6405;59.208;18.216;2022-11-21T16:41:16;-0.20;99.90
12682;DHT22;6405;59.208;18.216;2022-11-21T16:43:50;-0.20;99.90
12682;DHT22;6405;59.208;18.216;2022-11-21T16:46:18;-0.20;99.90
12682;DHT22;6405;59.208;18.216;2022-11-21T16:48:47;-0.20;99.90
12682;DHT22;6405;59.208;18.216;2022-11-21T16:51:16;-0.20;99.90
12682;DHT22;6405;59.208;18.216;2022-11-21T16:53:46;-0.20;99.90
12682;DHT22;6405;59.208;18.216;2022-11-21T16:56:15;-0.20;99.90
12682;DHT22;6405;59.208;18.216;2022-11-21T16:58:43;-0.20;99.90
12682;DHT22;6405;59.208;18.216;2022-11-21T17:01:18;0.00;99.90
12682;DHT22;6405;59.208;18.216;2022-11-21T17:03:47;-0.20;99.90
12682;DHT22;6405;59.208;18.216;2022-11-21T17:06:18;-0.20;99.90
12682;DHT22;6405;59.208;18.216;2022-11-21T17:08:45;-0.30;99.90
12682;DHT22;6405;59.208;18.216;2022-11-21T17:11:21;-0.30;99.90
12682;DHT22;6405;59.208;18.216;2022-11-21T17:13:49;-0.30;99.90
12682;DHT22;6405;59.208;18.216;2022-11-21T17:16:18;-0.30;99.90
12682;DHT22;6405;59.208;18.216;2022-11-21T17:18:45;-0.30;99.90
12682;DHT22;6405;59.208;18.216;2022-11-21T17:21:15;-0.20;99.90
12682;DHT22;6405;59.208;18.216;2022-11-21T17:23:44;-0.20;99.90
12682;DHT22;6405;59.208;18.216;2022-11-21T17:26:15;-0.20;99.90
12682;DHT22;6405;59.208;18.216;2022-11-21T17:28:43;-0.10;99.90
12682;DHT22;6405;59.208;18.216;2022-11-21T17:31:12;-0.10;99.90
12682;DHT22;6405;59.208;18.216;2022-11-21T17:33:41;-0.10;99.90
12682;DHT22;6405;59.208;18.216;2022-11-21T17:36:12;-0.10;99.90
12682;DHT22;6405;59.208;18.216;2022-11-21T17:38:39;0.00;99.90
12682;DHT22;6405;59.208;18.216;2022-11-21T17:41:07;0.00;99.90
12682;DHT22;6405;59.208;18.216;2022-11-21T17:43:36;0.10;99.90
12682;DHT22;6405;59.208;18.216;2022-11-21T17:46:06;0.10;99.90
12682;DHT22;6405;59.208;18.216;2022-11-21T17:48:34;0.20;99.90
12682;DHT22;6405;59.208;18.216;2022-11-21T17:53:36;0.20;99.90
12682;DHT22;6405;59.208;18.216;2022-11-21T17:56:05;0.20;99.90
12682;DHT22;6405;59.208;18.216;2022-11-21T17:58:32;0.20;99.90
12682;DHT22;6405;59.208;18.216;2022-11-21T18:01:00;0.20;99.90
12682;DHT22;6405;59.208;18.216;2022-11-21T18:03:28;0.20;99.90
12682;DHT22;6405;59.208;18.216;2022-11-21T18:06:05;0.20;99.90
12682;DHT22;6405;59.208;18.216;2022-11-21T18:08:33;0.20;99.90
12682;DHT22;6405;59.208;18.216;2022-11-21T18:11:01;0.20;99.90